This is the latest recevied weather packets stored in our database for station/object LRSM. If no packets are shown the sender has not sent any weather packets the latest 10 day(s).
| Time | Temp. | Humidity | Pressure | Rain* | Wind** | Luminosity | Snow |
|---|---|---|---|---|---|---|---|
| 1777421013 | 7.22° C | 42% | 1020 hPa | - | - | - | - |
| 1777420112 | 7.22° C | 46% | 1020 hPa | - | - | - | - |
| 1777419212 | 7.22° C | 46% | 1020 hPa | - | - | - | - |
| 1777418312 | 8.89° C | 34% | 1020 hPa | - | - | - | - |
| 1777417412 | 8.89° C | 34% | 1020 hPa | - | - | - | - |
| 1777416514 | 8.89° C | 37% | 1020 hPa | - | - | - | - |
| 1777415612 | 8.89° C | 37% | 1020 hPa | - | - | - | - |
| 1777414713 | 7.78° C | 40% | 1020 hPa | - | - | - | - |
| 1777413813 | 7.78° C | 40% | 1020 hPa | - | - | - | - |
| 1777412912 | 8.89° C | 37% | 1020 hPa | - | - | - | - |
| 1777412013 | 8.89° C | 37% | 1020 hPa | - | - | - | - |
| 1777411113 | 7.78° C | 43% | 1020 hPa | - | - | - | - |
| 1777410212 | 7.78° C | 43% | 1020 hPa | - | - | - | - |
| 1777409353 | 7.22° C | 46% | 1019 hPa | - | - | - | - |
| 1777408412 | 7.22° C | 46% | 1019 hPa | - | - | - | - |
| 1777407512 | 7.78° C | 43% | 1019 hPa | - | - | - | - |
| 1777406612 | 7.78° C | 43% | 1019 hPa | - | - | - | - |
| 1777405768 | 8.89° C | 40% | 1019 hPa | - | - | - | - |
| 1777404814 | 8.89° C | 40% | 1019 hPa | - | - | - | - |
| 1777403936 | 10° C | 40% | 1019 hPa | - | - | - | - |
| 1777403012 | 10° C | 40% | 1019 hPa | - | - | - | - |
| 1777402112 | 11.11° C | 35% | 1019 hPa | - | - | - | - |
| 1777401213 | 11.11° C | 35% | 1019 hPa | - | - | - | - |
| 1777400313 | 12.22° C | 33% | 1019 hPa | - | - | - | - |
| 1777399413 | 12.22° C | 33% | 1019 hPa | - | - | - | - |
* Rain since midnight (hover to see other rain measurements)
** Current wind speed in m/s (hover to see current wind gust speed)